• Join FlightAware (Why Join?)
  • Login
  • US Flag 
08:23AM EST


 

Airport Tracker/Info


-or-


 

Live Flight TrackerFlight Track Log ✈ UAL582 ✈ 17-May-2013 ✈ KORD - KATL

Flight Track Log - Related Links

Times and Time Zones

All times are in EDT time to prevent confusion due to time zone crossing. See the UAL582 flight status page for this flight to view local times or setup timezone preferences in your user account.

Time Position Orientation Groundspeed Altitude Reporting Facility
EDT Latitude Longitude Course Direction KTS MPH feet Rate Location/Type
09:01PM 41.9833 -87.8667 191° South 156 180 2,200  Level Chicago TRACON
09:02PM 41.9333 -87.8167 143° Southeast 219 252 4,300 1,020 Climbing Chicago TRACON
09:04PM 41.5965 -87.7262 176° South  Level Estimated
09:04PM 41.7967 -87.7658 165° South 255 293 5,600  Level Chicago Center
09:05PM 41.5084 -87.7951 210° Southwest  Level FlightAware Approximate
09:05PM 41.7233 -87.7808 189° South 268 308 9,100  Level Chicago Center
09:06PM 41.4124 -87.7490 191° South  Level Estimated
09:06PM 41.6306 -87.8100 193° South 284 327 13,000  Level Chicago Center
09:07PM 41.5425 -87.8372 193° South 324 373 14,400 1,680 Climbing Chicago Center
09:08PM 41.4369 -87.8453 183° South 382 440 16,500 2,100 Climbing Chicago Center
09:10PM 41.3275 -87.8208 170° South 394 453 18,800 1,980 Climbing Chicago Center
09:11PM 41.2142 -87.7942 170° South 405 466 20,600 1,800 Climbing Chicago Center
09:12PM 41.0981 -87.7667 170° South 417 480 22,600 1,740 Climbing Chicago Center
09:13PM 40.9783 -87.7383 170° South 432 497 24,300 1,680 Climbing Chicago Center
09:14PM 40.8331 -87.7033 170° South 442 509 26,100 1,620 Climbing Chicago Center
09:15PM 40.7086 -87.6747 170° South 451 519 27,700 1,320 Climbing Chicago Center
09:16PM 40.5825 -87.6444 170° South 461 531 28,900 1,140 Climbing Chicago Center
09:17PM 40.4544 -87.6150 170° South 468 539 30,100 1,260 Climbing Chicago Center
09:18PM 40.3261 -87.5864 170° South 471 542 31,600 1,620 Climbing Chicago Center
09:19PM 40.1731 -87.5508 170° South 468 539 33,500 1,560 Climbing Chicago Center
09:19PM 40.1147 -87.5400 172° South 462 532 34,200 1,260 Climbing Indianapolis Center
09:20PM 39.9644 -87.5075 171° South 458 527 35,600 1,200 Climbing Indianapolis Center
09:21PM 39.8408 -87.4778 170° South 455 524 36,700 960 Climbing Indianapolis Center
09:23PM 39.7189 -87.4508 170° South 451 519 37,600 780 Climbing Indianapolis Center
09:24PM 39.5942 -87.4231 170° South 453 521 38,400 660 Climbing Indianapolis Center
09:25PM 39.4717 -87.3953 170° South 451 519 39,000 240 Climbing Indianapolis Center
09:26PM 39.3489 -87.3689 171° South 450 518 39,000  Level Indianapolis Center
09:27PM 39.2275 -87.3414 170° South 446 513 39,000  Level Indianapolis Center
09:28PM 39.1008 -87.3125 170° South 444 511 39,000 -60 Level Indianapolis Center
09:29PM 38.9792 -87.2864 171° South 441 507 38,900  Descending Indianapolis Center
09:30PM 38.8556 -87.2586 170° South 447 514 39,000  Climbing Indianapolis Center
09:31PM 38.7314 -87.2328 171° South 451 519 39,000  Level Indianapolis Center
09:32PM 38.6069 -87.2042 170° South 452 520 39,000  Level Indianapolis Center
09:33PM 38.4592 -87.1731 171° South 448 516 39,000  Level Indianapolis Center
09:34PM 38.3458 -87.1489 171° South 449 517 39,000  Level Indianapolis Center
09:35PM 38.2239 -87.1214 170° South 447 514 39,000  Level Indianapolis Center
09:36PM 38.1003 -87.0953 171° South 443 510 39,000  Level Indianapolis Center
09:37PM 37.9789 -87.0692 170° South 442 509 39,000  Level Indianapolis Center
09:38PM 37.8592 -87.0433 170° South 437 503 39,000  Level Indianapolis Center
09:39PM 37.7406 -87.0172 170° South 432 497 39,000  Level Indianapolis Center
09:40PM 37.6222 -86.9925 171° South 429 494 39,000  Level Indianapolis Center
09:40PM 37.5442 -86.9778 171° South 426 490 39,000  Level Memphis Center
09:41PM 37.4247 -86.9517 170° South 426 490 39,000  Level Memphis Center
09:42PM 37.3136 -86.9278 170° South 426 490 39,000  Level Memphis Center
09:43PM 37.1964 -86.9042 171° South 426 490 39,000  Level Memphis Center
09:44PM 37.0831 -86.8803 170° South 426 490 39,000  Level Memphis Center
09:45PM 36.9594 -86.8547 171° South 420 483 39,000  Level Memphis Center
09:46PM 36.8442 -86.8311 171° South 420 483 39,000  Level Memphis Center
09:47PM 36.7308 -86.8050 170° South 415 478 39,000  Level Memphis Center
09:48PM 36.6178 -86.7817 171° South 415 478 39,000  Level Memphis Center
09:49PM 36.5064 -86.7556 169° South 410 472 39,000  Level Memphis Center
09:50PM 36.3892 -86.7325 171° South 424 488 39,000  Level Memphis Center
09:51PM 36.2822 -86.7114 171° South 431 496 39,000  Level Memphis Center
09:52PM 36.1644 -86.6833 169° South 431 496 39,000 -300 Level Memphis Center
09:53PM 36.0586 -86.6214 155° Southeast 419 482 38,400 -840 Descending Memphis Center
09:54PM 35.9494 -86.5339 147° Southeast 425 489 37,400 -1,020 Descending Memphis Center
09:55PM 35.8469 -86.4517 147° Southeast 439 505 36,400 -1,020 Descending Memphis Center
09:58PM 35.6064 -86.2583 147° Southeast 448 516 34,100 -1,020 Descending Atlanta Center
09:59PM 35.4994 -86.1714 146° Southeast 455 524 33,100 -840 Descending Atlanta Center
10:00PM 35.3906 -86.0844 147° Southeast 462 532 32,500 -840 Descending Atlanta Center
10:01PM 35.2750 -85.9900 146° Southeast 462 532 31,500 -960 Descending Atlanta Center
10:02PM 35.1886 -85.9219 147° Southeast 462 532 30,600 -960 Descending Atlanta Center
10:03PM 35.0731 -85.8306 147° Southeast 456 525 29,600 -1,020 Descending Atlanta Center
10:04PM 34.9617 -85.7444 148° Southeast 456 525 28,600 -1,020 Descending Atlanta Center
10:05PM 34.8522 -85.6561 146° Southeast 461 531 27,600 -1,260 Descending Atlanta Center
10:06PM 34.7572 -85.5836 148° Southeast 455 524 26,100 -1,800 Descending Atlanta Center
10:07PM 34.6372 -85.4906 147° Southeast 443 510 24,100 -1,860 Descending Atlanta Center
10:08PM 34.5400 -85.4156 148° Southeast 433 498 22,400 -2,040 Descending Atlanta Center
10:09PM 34.4356 -85.4139 179° South 380 437 20,100 -2,340 Descending Atlanta Center
10:10PM 34.3381 -85.3822 165° South 380 437 17,800 -1,800 Descending Atlanta Center
10:11PM 34.2742 -85.2981 133° Southeast 364 419 16,500 -1,860 Descending Atlanta Center
10:12PM 34.2083 -85.1967 128° Southeast 370 426 14,100 -1,260 Descending Atlanta Center
10:13PM 34.1425 -85.1006 130° Southeast 378 435 14,000 -60 Descending Atlanta Center
10:14PM 34.0806 -85.0144 131° Southeast 361 415 14,000 -300 Level Atlanta Center
10:15PM 34.0164 -84.9311 133° Southeast 339 390 13,500 -1,020 Descending Atlanta Center
10:16PM 33.9503 -84.8453 133° Southeast 339 390 12,000 -780 Descending Atlanta Center
10:17PM 33.8861 -84.7669 135° Southeast 334 384 12,000  Level Atlanta Center
10:17PM 33.8500 -84.7333 142° Southeast 324 373 12,000  Level Atlanta TRACON
10:19PM 33.7658 -84.6136 130° Southeast 308 354 12,000 -60 Level Atlanta Center
10:19PM 33.7500 -84.5833 122° Southeast 254 292 11,900 -900 Descending Atlanta TRACON
10:20PM 33.7333 -84.5000 104° East 274 315 10,700 -1,440 Descending Atlanta TRACON
10:21PM 33.7333 -84.4000 90° East 272 313 8,900 -1,680 Descending Atlanta TRACON
10:22PM 33.7333 -84.3333 90° East 254 292 7,600 -1,440 Descending Atlanta TRACON
10:23PM 33.7333 -84.2500 90° East 243 280 6,200 -1,080 Descending Atlanta TRACON
10:24PM 33.6833 -84.2333 164° South 182 209 5,500 -1,380 Descending Atlanta TRACON
10:25PM 33.6500 -84.3000 239° Southwest 190 219 3,400 -1,860 Descending Atlanta TRACON
10:26PM 33.6500 -84.3500 270° West 168 193 2,000 -1,200 Descending Atlanta TRACON
10:27PM 33.6500 -84.4000 270° West 143 165 1,200 -780 Descending Atlanta TRACON